createdAt,value
2019-01-19T00:00:20.270Z,99.99
2019-01-19T00:01:20.290Z,99.99
2019-01-19T00:02:20.312Z,99.99
2019-01-19T00:03:20.332Z,99.99
2019-01-19T00:04:20.349Z,99.99
2019-01-19T00:05:20.374Z,99.99
2019-01-19T00:06:20.391Z,99.99
2019-01-19T00:07:20.411Z,99.99
2019-01-19T00:08:20.451Z,99.99
2019-01-19T00:09:20.451Z,99.99
2019-01-19T00:10:20.472Z,99.99
2019-01-19T00:11:20.495Z,99.99
2019-01-19T00:12:20.515Z,99.99
2019-01-19T00:13:20.532Z,99.99
2019-01-19T00:14:20.555Z,99.99
2019-01-19T00:15:20.595Z,99.99
2019-01-19T00:16:20.596Z,99.99
2019-01-19T00:17:20.613Z,99.99
2019-01-19T00:18:20.638Z,99.99
2019-01-19T00:19:20.655Z,99.99
2019-01-19T00:20:20.678Z,99.99
2019-01-19T00:21:20.695Z,99.99
2019-01-19T00:22:20.716Z,99.99
2019-01-19T00:23:20.738Z,99.99
2019-01-19T00:24:20.758Z,99.99
2019-01-19T00:25:20.779Z,99.99
2019-01-19T00:26:20.797Z,99.99
2019-01-19T00:27:20.820Z,99.99
2019-01-19T00:28:20.841Z,99.99
2019-01-19T00:29:20.863Z,99.99
2019-01-19T00:30:20.878Z,99.99
2019-01-19T00:31:20.902Z,99.99
2019-01-19T00:32:20.920Z,99.99
2019-01-19T00:33:20.941Z,99.99
2019-01-19T00:34:20.959Z,99.99
2019-01-19T00:35:20.984Z,99.99
2019-01-19T00:36:21.007Z,99.99
2019-01-19T00:37:21.023Z,99.99
2019-01-19T00:38:21.041Z,99.99
2019-01-19T00:39:21.061Z,99.99
2019-01-19T00:40:21.083Z,99.99
2019-01-19T00:41:21.105Z,99.99
2019-01-19T00:42:21.124Z,99.99
2019-01-19T00:43:21.145Z,99.99
2019-01-19T00:44:21.162Z,99.99
2019-01-19T00:45:21.183Z,99.99
2019-01-19T00:46:21.203Z,99.99
2019-01-19T00:47:21.226Z,99.99
2019-01-19T00:48:21.245Z,99.99
2019-01-19T00:49:21.265Z,99.99
2019-01-19T00:50:21.286Z,99.99
2019-01-19T00:51:21.304Z,99.99
2019-01-19T00:52:21.324Z,99.99
2019-01-19T00:53:21.347Z,99.99
2019-01-19T00:54:21.364Z,99.99
2019-01-19T00:55:21.387Z,99.99
2019-01-19T00:56:21.405Z,99.99
2019-01-19T00:57:21.427Z,99.99
2019-01-19T00:59:19.027Z,99.99
2019-01-19T01:00:19.046Z,99.99
2019-01-19T01:01:19.067Z,99.99
2019-01-19T01:02:19.088Z,99.99
2019-01-19T01:03:19.109Z,99.99
2019-01-19T01:04:19.125Z,99.99
2019-01-19T01:05:25.161Z,99.99
2019-01-19T01:06:19.168Z,99.99
2019-01-19T01:07:19.192Z,99.99
2019-01-19T01:08:19.207Z,99.99
2019-01-19T01:09:19.225Z,99.99
2019-01-19T01:10:19.245Z,99.99
2019-01-19T01:11:19.266Z,99.99
2019-01-19T01:12:19.290Z,99.99
2019-01-19T01:13:19.309Z,99.99
2019-01-19T01:14:19.328Z,99.99
2019-01-19T01:15:19.351Z,99.99
2019-01-19T01:16:19.370Z,99.99
2019-01-19T01:17:19.389Z,99.99
2019-01-19T01:18:19.410Z,99.99
2019-01-19T01:19:19.427Z,99.99
2019-01-19T01:20:19.451Z,99.99
2019-01-19T01:21:19.470Z,99.99
2019-01-19T01:22:19.489Z,99.99
2019-01-19T01:23:19.510Z,99.99
2019-01-19T01:24:19.530Z,99.99
2019-01-19T01:25:19.551Z,99.99
2019-01-19T01:26:19.571Z,99.99
2019-01-19T01:27:19.590Z,99.99
2019-01-19T01:28:19.609Z,99.99
2019-01-19T01:29:19.635Z,99.99
2019-01-19T01:30:19.650Z,99.99
2019-01-19T01:31:19.670Z,99.99
2019-01-19T01:32:19.693Z,99.99
2019-01-19T01:33:19.713Z,99.99
2019-01-19T01:34:19.737Z,99.99
2019-01-19T01:35:19.754Z,99.99
2019-01-19T01:36:19.786Z,99.99
2019-01-19T01:37:19.791Z,99.99
2019-01-19T01:38:19.814Z,99.99
2019-01-19T01:39:19.834Z,99.99
2019-01-19T01:40:19.852Z,99.99
2019-01-19T01:41:19.872Z,99.99
2019-01-19T01:42:19.897Z,99.99
2019-01-19T01:43:19.912Z,99.99
2019-01-19T01:44:19.936Z,99.99
2019-01-19T01:45:19.954Z,99.99
2019-01-19T01:46:19.981Z,99.99
2019-01-19T01:47:19.994Z,99.99
2019-01-19T01:48:20.017Z,99.99
2019-01-19T01:49:20.033Z,99.99
2019-01-19T01:50:20.057Z,99.99
2019-01-19T01:51:20.080Z,99.99
2019-01-19T01:52:20.110Z,99.99
2019-01-19T01:53:20.113Z,99.99
2019-01-19T01:54:20.137Z,99.99
2019-01-19T01:55:20.154Z,99.99
2019-01-19T01:56:20.179Z,99.99
2019-01-19T01:57:20.196Z,99.99
2019-01-19T01:58:20.215Z,99.99
2019-01-19T01:59:20.237Z,99.99
2019-01-19T02:00:20.259Z,99.99
2019-01-19T02:01:20.279Z,99.99
2019-01-19T02:02:20.302Z,99.99
2019-01-19T02:03:20.334Z,99.99
2019-01-19T02:04:20.338Z,99.99
2019-01-19T02:05:20.357Z,99.99
2019-01-19T02:06:20.377Z,99.99
2019-01-19T02:07:20.401Z,99.99
2019-01-19T02:08:20.425Z,99.99
2019-01-19T02:09:20.440Z,99.99
2019-01-19T02:10:20.458Z,99.99
2019-01-19T02:11:20.477Z,99.99
2019-01-19T02:12:20.498Z,99.99
2019-01-19T02:13:20.521Z,99.99
2019-01-19T02:15:05.714Z,99.99
2019-01-19T02:16:45.663Z,99.99
2019-01-19T02:17:45.667Z,99.99
2019-01-19T02:18:45.687Z,99.99
2019-01-19T02:19:45.703Z,99.99
2019-01-19T02:20:48.357Z,99.99
2019-01-19T02:21:45.746Z,99.99
2019-01-19T02:22:45.776Z,99.99
2019-01-19T02:23:45.784Z,99.99
2019-01-19T02:24:45.802Z,99.99
2019-01-19T02:25:45.824Z,99.99
2019-01-19T02:26:45.845Z,99.99
2019-01-19T02:27:45.867Z,99.99
2019-01-19T02:28:45.886Z,99.99
2019-01-19T02:29:45.918Z,99.99
2019-01-19T02:30:45.923Z,99.99
2019-01-19T02:31:45.945Z,99.99
2019-01-19T02:32:45.967Z,99.99
2019-01-19T02:33:45.987Z,99.99
2019-01-19T02:34:46.011Z,99.99
2019-01-19T02:35:48.662Z,99.99
2019-01-19T02:36:46.047Z,99.99
2019-01-19T02:37:46.068Z,99.99
2019-01-19T02:38:46.088Z,99.99
2019-01-19T02:39:46.119Z,99.99
2019-01-19T02:40:46.139Z,99.99
2019-01-19T02:41:46.160Z,99.99
2019-01-19T02:42:47.582Z,99.99
2019-01-19T02:43:46.184Z,99.99
2019-01-19T02:44:46.206Z,99.99
2019-01-19T02:45:46.222Z,99.99
2019-01-19T02:46:46.247Z,99.99
2019-01-19T02:47:46.260Z,99.99
2019-01-19T02:48:46.283Z,99.99
2019-01-19T02:49:47.568Z,99.99
2019-01-19T02:50:46.328Z,99.99
2019-01-19T02:51:46.343Z,99.99
2019-01-19T02:52:46.366Z,99.99
2019-01-19T02:53:46.382Z,99.99
2019-01-19T02:54:46.403Z,99.99
2019-01-19T02:55:46.426Z,99.99
2019-01-19T02:56:46.446Z,99.99
2019-01-19T02:57:46.462Z,99.99
2019-01-19T02:58:46.498Z,99.99
2019-01-19T02:59:46.505Z,99.99
2019-01-19T03:00:46.539Z,99.99
2019-01-19T03:01:46.560Z,99.99
2019-01-19T03:02:46.566Z,99.99
2019-01-19T03:03:46.586Z,99.99
2019-01-19T03:04:46.604Z,99.99
2019-01-19T03:05:46.633Z,99.99
2019-01-19T03:06:46.645Z,99.99
2019-01-19T03:07:46.674Z,99.99
2019-01-19T03:08:46.688Z,99.99
2019-01-19T03:09:46.709Z,99.99
2019-01-19T03:10:46.740Z,99.99
2019-01-19T03:11:46.748Z,99.99
2019-01-19T03:12:46.767Z,99.99
2019-01-19T03:13:46.788Z,99.99
2019-01-19T03:14:46.807Z,99.99
2019-01-19T03:15:46.840Z,99.99
2019-01-19T03:16:46.846Z,99.99
2019-01-19T03:17:46.869Z,99.99
2019-01-19T03:18:46.891Z,99.99
2019-01-19T03:19:46.909Z,99.99
2019-01-19T03:20:46.933Z,99.99
2019-01-19T03:21:46.951Z,99.99
2019-01-19T03:22:46.967Z,99.99
2019-01-19T03:23:46.985Z,99.99
2019-01-19T03:24:47.009Z,99.99
2019-01-19T03:25:47.026Z,99.99
2019-01-19T03:26:47.055Z,99.99
2019-01-19T03:27:47.067Z,99.99
2019-01-19T03:28:47.088Z,99.99
2019-01-19T03:29:47.108Z,99.99
2019-01-19T03:30:47.131Z,99.99
2019-01-19T03:31:47.155Z,99.99
2019-01-19T03:32:47.172Z,99.99
2019-01-19T03:33:47.191Z,99.99
2019-01-19T03:34:47.209Z,99.99
2019-01-19T03:35:47.236Z,99.99
2019-01-19T03:36:47.248Z,99.99
2019-01-19T03:37:47.281Z,99.99
2019-01-19T03:38:47.290Z,99.99
2019-01-19T03:39:47.310Z,99.99
2019-01-19T03:40:47.329Z,99.99
2019-01-19T03:41:47.353Z,99.99
2019-01-19T03:42:47.387Z,99.99
2019-01-19T03:43:47.394Z,99.99
2019-01-19T03:44:47.411Z,99.99
2019-01-19T03:45:47.432Z,99.99
2019-01-19T03:46:47.454Z,99.99
2019-01-19T03:47:47.487Z,99.99
2019-01-19T03:48:47.495Z,99.99
2019-01-19T03:49:47.513Z,99.99
2019-01-19T03:50:47.535Z,99.99
2019-01-19T03:51:47.552Z,99.99
2019-01-19T03:52:47.579Z,99.99
2019-01-19T03:53:47.595Z,99.99
2019-01-19T03:54:47.627Z,99.99
2019-01-19T03:55:47.636Z,99.99
2019-01-19T03:56:47.660Z,99.99
2019-01-19T03:57:47.679Z,99.99
2019-01-19T03:58:47.697Z,99.99
2019-01-19T03:59:47.714Z,99.99
2019-01-19T04:00:47.735Z,99.99
2019-01-19T04:01:47.763Z,99.99
2019-01-19T04:02:47.778Z,99.99
2019-01-19T04:03:47.803Z,99.99
2019-01-19T04:04:47.816Z,99.99
2019-01-19T04:05:47.838Z,99.99
2019-01-19T04:06:47.863Z,99.99
2019-01-19T04:07:47.876Z,99.99
2019-01-19T04:08:47.896Z,99.99
2019-01-19T04:09:47.916Z,99.99
2019-01-19T04:10:47.940Z,99.99
2019-01-19T04:11:47.966Z,99.99
2019-01-19T04:12:47.980Z,99.99
2019-01-19T04:13:48.005Z,99.99
2019-01-19T04:14:48.018Z,99.99
2019-01-19T04:15:48.040Z,99.99
2019-01-19T04:16:48.064Z,99.99
2019-01-19T04:17:48.082Z,99.99
2019-01-19T04:18:48.102Z,99.99
2019-01-19T04:19:48.123Z,99.99
2019-01-19T04:20:48.148Z,99.99
2019-01-19T04:21:48.161Z,99.99
2019-01-19T04:22:48.181Z,99.99
2019-01-19T04:23:48.201Z,99.99
2019-01-19T04:24:48.223Z,99.99
2019-01-19T04:25:48.242Z,99.99
2019-01-19T04:26:48.264Z,99.99
2019-01-19T04:27:48.283Z,99.99
2019-01-19T04:28:48.306Z,99.99
2019-01-19T04:29:48.325Z,99.99
2019-01-19T04:30:49.653Z,99.99
2019-01-19T04:31:48.365Z,99.99
2019-01-19T04:32:48.391Z,99.99
2019-01-19T04:33:48.405Z,99.99
2019-01-19T04:34:48.451Z,99.99
2019-01-19T04:35:48.447Z,99.99
2019-01-19T04:36:48.471Z,99.99
2019-01-19T04:37:48.501Z,99.99
2019-01-19T04:38:48.506Z,99.99
2019-01-19T04:39:48.527Z,99.99
2019-01-19T04:40:48.548Z,99.99
2019-01-19T04:41:48.565Z,99.99
2019-01-19T04:42:48.597Z,99.99
2019-01-19T04:43:48.608Z,99.99
2019-01-19T04:44:48.627Z,99.99
2019-01-19T04:45:48.647Z,99.99
2019-01-19T04:46:48.671Z,99.99
2019-01-19T04:47:48.702Z,99.99
2019-01-19T04:48:48.708Z,99.99
2019-01-19T04:49:48.731Z,99.99
2019-01-19T04:50:48.752Z,99.99
2019-01-19T04:51:48.771Z,99.99
2019-01-19T04:52:48.789Z,99.99
2019-01-19T04:53:48.810Z,99.99
2019-01-19T04:54:48.836Z,99.99
2019-01-19T04:55:48.865Z,99.99
2019-01-19T04:56:48.872Z,99.99
2019-01-19T04:57:48.893Z,99.99
2019-01-19T04:58:48.927Z,99.99
2019-01-19T04:59:48.932Z,99.99
2019-01-19T05:00:48.954Z,99.99
2019-01-19T05:01:48.974Z,99.99
2019-01-19T05:02:49.000Z,99.99
2019-01-19T05:03:49.016Z,99.99
2019-01-19T05:04:49.050Z,99.99
2019-01-19T05:05:49.053Z,99.99
2019-01-19T05:06:49.076Z,99.99
2019-01-19T05:07:49.094Z,99.99
2019-01-19T05:08:49.112Z,99.99
2019-01-19T05:09:49.134Z,99.99
2019-01-19T05:10:49.157Z,99.99
2019-01-19T05:11:49.180Z,99.99
2019-01-19T05:12:49.211Z,99.99
2019-01-19T05:13:49.225Z,99.99
2019-01-19T05:14:49.237Z,99.99
2019-01-19T05:15:49.258Z,99.99
2019-01-19T05:16:49.274Z,99.99
2019-01-19T05:17:49.312Z,99.99
2019-01-19T05:18:49.321Z,99.99
2019-01-19T05:19:49.338Z,99.99
2019-01-19T05:20:49.359Z,99.99
2019-01-19T05:21:49.381Z,99.99
2019-01-19T05:22:49.400Z,99.99
2019-01-19T05:23:49.434Z,99.99
2019-01-19T05:24:49.444Z,99.99
2019-01-19T05:25:49.460Z,99.99
2019-01-19T05:26:49.478Z,99.99
2019-01-19T05:27:49.501Z,99.99
2019-01-19T05:28:49.519Z,99.99
2019-01-19T05:29:49.544Z,99.99
2019-01-19T05:30:49.560Z,99.99
2019-01-19T05:31:49.577Z,99.99
2019-01-19T05:32:49.607Z,99.99
2019-01-19T05:33:49.620Z,99.99
2019-01-19T05:34:49.647Z,99.99
2019-01-19T05:35:49.660Z,99.99
2019-01-19T05:36:49.680Z,99.99
2019-01-19T05:37:49.702Z,99.99
2019-01-19T05:38:49.720Z,99.99
2019-01-19T05:39:49.755Z,99.99
2019-01-19T05:40:49.760Z,99.99
2019-01-19T05:41:49.784Z,99.99
2019-01-19T05:42:49.802Z,99.99
2019-01-19T05:43:49.819Z,99.99
2019-01-19T05:44:49.855Z,99.99
2019-01-19T05:45:49.866Z,99.99
2019-01-19T05:46:49.882Z,99.99
2019-01-19T05:47:49.902Z,99.99
2019-01-19T05:48:49.923Z,99.99
2019-01-19T05:49:49.942Z,99.99
2019-01-19T05:50:49.961Z,99.99
2019-01-19T05:51:49.981Z,99.99
2019-01-19T05:52:50.000Z,99.99
2019-01-19T05:53:50.024Z,99.99
2019-01-19T05:54:50.041Z,99.99
2019-01-19T05:55:50.064Z,99.99
2019-01-19T05:56:50.083Z,99.99
2019-01-19T05:57:50.103Z,99.99
2019-01-19T05:58:50.126Z,99.99
2019-01-19T05:59:50.143Z,99.99
2019-01-19T06:00:50.162Z,99.99
2019-01-19T06:01:50.182Z,99.99
2019-01-19T06:02:50.200Z,99.99
2019-01-19T06:03:50.227Z,99.99
2019-01-19T06:04:50.242Z,99.99
2019-01-19T06:05:50.261Z,99.99
2019-01-19T06:06:50.284Z,99.99
2019-01-19T06:07:50.304Z,99.99
2019-01-19T06:08:50.322Z,99.99
2019-01-19T06:09:50.341Z,99.99
2019-01-19T06:10:50.361Z,99.99
2019-01-19T06:11:50.383Z,99.99
2019-01-19T06:12:50.404Z,99.99
2019-01-19T06:13:50.424Z,99.99
2019-01-19T06:14:50.444Z,99.99
2019-01-19T06:15:50.461Z,99.99
2019-01-19T06:16:50.484Z,99.99
2019-01-19T06:17:50.506Z,99.99
2019-01-19T06:18:50.525Z,99.99
2019-01-19T06:19:50.544Z,99.99
2019-01-19T06:20:50.564Z,99.99
2019-01-19T06:21:50.583Z,99.99
2019-01-19T06:22:50.603Z,99.99
2019-01-19T06:23:50.624Z,99.99
2019-01-19T06:24:50.642Z,99.99
2019-01-19T06:25:50.663Z,99.99
2019-01-19T06:26:50.685Z,99.99
2019-01-19T06:27:50.701Z,99.99
2019-01-19T06:28:50.721Z,99.99
2019-01-19T06:29:50.745Z,99.99
2019-01-19T06:30:50.763Z,99.99
2019-01-19T06:31:50.787Z,99.99
2019-01-19T06:32:50.809Z,99.99
2019-01-19T06:33:50.822Z,99.99
2019-01-19T06:34:50.852Z,99.99
2019-01-19T06:35:50.865Z,99.99
2019-01-19T06:36:54.998Z,99.99
2019-01-19T06:37:50.924Z,99.99
2019-01-19T06:38:50.923Z,99.99
2019-01-19T06:39:50.954Z,99.99
2019-01-19T06:40:50.964Z,99.99
2019-01-19T06:41:50.982Z,99.99
2019-01-19T06:42:51.002Z,99.99
2019-01-19T06:43:51.024Z,99.99
2019-01-19T06:44:51.044Z,99.99
2019-01-19T06:45:51.063Z,99.99
2019-01-19T06:46:51.085Z,99.99
2019-01-19T06:47:51.103Z,99.99
2019-01-19T06:48:51.121Z,99.99
2019-01-19T06:49:51.143Z,99.99
2019-01-19T06:50:51.163Z,99.99
2019-01-19T06:51:51.184Z,99.99
2019-01-19T06:52:51.203Z,99.99
2019-01-19T06:53:51.222Z,99.99
2019-01-19T06:54:51.244Z,99.99
2019-01-19T06:55:51.265Z,99.99
2019-01-19T06:56:51.284Z,99.99
2019-01-19T06:57:51.302Z,99.99
2019-01-19T06:58:51.322Z,99.99
2019-01-19T06:59:51.343Z,99.99
2019-01-19T07:00:51.366Z,99.99
2019-01-19T07:01:51.385Z,99.99
2019-01-19T07:02:51.405Z,99.99
2019-01-19T07:03:51.425Z,99.99
2019-01-19T07:04:51.448Z,99.99
2019-01-19T07:05:51.462Z,99.99
2019-01-19T07:06:51.505Z,99.99
2019-01-19T07:07:51.504Z,99.99
2019-01-19T07:08:51.521Z,99.99
2019-01-19T07:09:51.544Z,99.99
2019-01-19T07:10:51.564Z,99.99
2019-01-19T07:11:51.583Z,99.99
2019-01-19T07:12:51.603Z,99.99
2019-01-19T07:13:51.622Z,99.99
2019-01-19T07:14:51.642Z,99.99
2019-01-19T07:15:51.663Z,99.99
2019-01-19T07:16:51.681Z,99.99
2019-01-19T07:17:51.702Z,99.99
2019-01-19T07:18:51.725Z,99.99
2019-01-19T07:19:51.740Z,99.99
2019-01-19T07:20:51.761Z,99.99
2019-01-19T07:21:51.783Z,99.99
2019-01-19T07:22:51.803Z,99.99
2019-01-19T07:23:51.823Z,99.99
2019-01-19T07:24:51.842Z,99.99
2019-01-19T07:25:51.862Z,99.99
2019-01-19T07:26:51.883Z,99.99
2019-01-19T07:27:51.902Z,99.99
2019-01-19T07:28:51.920Z,99.99
2019-01-19T07:29:51.943Z,99.99
2019-01-19T07:30:51.960Z,99.99
2019-01-19T07:31:51.979Z,99.99
2019-01-19T07:32:51.999Z,99.99
2019-01-19T07:33:52.020Z,99.99
2019-01-19T07:34:52.042Z,99.99
2019-01-19T07:35:52.061Z,99.99
2019-01-19T07:36:52.080Z,99.99
2019-01-19T07:37:52.100Z,99.99
2019-01-19T07:38:52.122Z,99.99
2019-01-19T07:39:52.142Z,99.99
2019-01-19T07:40:52.160Z,99.99
2019-01-19T07:41:52.181Z,99.99
2019-01-19T07:42:52.203Z,99.99
2019-01-19T07:43:52.222Z,99.99
2019-01-19T07:44:52.241Z,99.99
2019-01-19T07:45:52.259Z,99.99
2019-01-19T07:46:56.143Z,99.99
2019-01-19T07:47:52.298Z,99.99
2019-01-19T07:48:52.319Z,99.99
2019-01-19T07:49:52.338Z,99.99
2019-01-19T07:50:52.357Z,99.99
2019-01-19T07:51:52.528Z,99.99
2019-01-19T07:52:52.401Z,99.99
2019-01-19T07:53:52.421Z,99.99
2019-01-19T07:54:52.440Z,99.99
2019-01-19T07:55:52.457Z,99.99
2019-01-19T07:56:52.478Z,99.99
2019-01-19T07:57:52.498Z,99.99
2019-01-19T07:58:52.521Z,99.99
2019-01-19T07:59:52.538Z,99.99
2019-01-19T08:00:52.558Z,99.99
2019-01-19T08:01:52.578Z,99.99
2019-01-19T08:02:52.601Z,99.99
2019-01-19T08:03:52.618Z,99.99
2019-01-19T08:04:52.643Z,99.99
2019-01-19T08:05:52.661Z,99.99
2019-01-19T08:06:52.682Z,99.99
2019-01-19T08:07:52.700Z,99.99
2019-01-19T08:08:52.721Z,99.99
2019-01-19T08:09:52.738Z,99.99
2019-01-19T08:10:52.759Z,99.99
2019-01-19T08:11:52.779Z,99.99
2019-01-19T08:12:52.801Z,99.99
2019-01-19T08:13:52.818Z,99.99
2019-01-19T08:14:52.841Z,99.99
2019-01-19T08:15:52.863Z,99.99
2019-01-19T08:16:52.881Z,99.99
2019-01-19T08:17:52.901Z,99.99
2019-01-19T08:18:52.922Z,99.99
2019-01-19T08:19:52.973Z,99.99
2019-01-19T08:20:52.959Z,99.99
2019-01-19T08:21:52.985Z,99.99
2019-01-19T08:22:53.002Z,99.99
2019-01-19T08:23:53.020Z,99.99
2019-01-19T08:24:53.244Z,99.99
2019-01-19T08:25:53.064Z,99.99
2019-01-19T08:26:53.082Z,99.99
2019-01-19T08:27:53.102Z,99.99
2019-01-19T08:28:53.122Z,99.99
2019-01-19T08:29:53.140Z,99.99
2019-01-19T08:30:53.160Z,99.99
2019-01-19T08:31:53.180Z,99.99
2019-01-19T08:32:53.200Z,99.99
2019-01-19T08:33:53.220Z,99.99
2019-01-19T08:34:53.242Z,99.99
2019-01-19T08:35:53.264Z,99.99
2019-01-19T08:36:53.283Z,99.99
2019-01-19T08:37:53.301Z,99.99
2019-01-19T08:38:53.320Z,99.99
2019-01-19T08:39:53.342Z,99.99
2019-01-19T08:40:53.361Z,99.99
2019-01-19T08:41:53.383Z,99.99
2019-01-19T08:42:53.404Z,99.99
2019-01-19T08:43:53.423Z,99.99
2019-01-19T08:44:53.441Z,99.99
2019-01-19T08:45:53.461Z,99.99
2019-01-19T08:46:53.482Z,99.99
2019-01-19T08:47:53.502Z,99.99
2019-01-19T08:48:53.521Z,99.99
2019-01-19T08:49:53.542Z,99.99
2019-01-19T08:50:53.565Z,99.99
2019-01-19T08:51:53.584Z,99.99
2019-01-19T08:52:53.604Z,99.99
2019-01-19T08:53:53.628Z,99.99
2019-01-19T08:54:53.644Z,99.99
2019-01-19T08:55:53.662Z,99.99
2019-01-19T08:56:53.687Z,99.99
2019-01-19T08:57:53.705Z,99.99
2019-01-19T08:58:53.723Z,99.99
2019-01-19T08:59:53.743Z,99.99
2019-01-19T09:00:53.763Z,99.99
2019-01-19T09:01:53.785Z,99.99
2019-01-19T09:02:53.822Z,99.99
2019-01-19T09:03:53.824Z,99.99
2019-01-19T09:04:53.851Z,99.99
2019-01-19T09:05:53.869Z,99.99
2019-01-19T09:06:53.887Z,99.99
2019-01-19T09:07:53.906Z,99.99
2019-01-19T09:08:53.926Z,99.99
2019-01-19T09:09:53.952Z,99.99
2019-01-19T09:10:53.966Z,99.99
2019-01-19T09:11:53.991Z,99.99
2019-01-19T09:12:54.694Z,99.99
2019-01-19T09:13:54.027Z,99.99
2019-01-19T09:14:54.048Z,99.99
2019-01-19T09:15:54.069Z,99.99
2019-01-19T09:16:54.088Z,99.99
2019-01-19T09:17:54.111Z,99.99
2019-01-19T09:18:54.131Z,99.99
2019-01-19T09:19:54.149Z,99.99
2019-01-19T09:20:55.383Z,99.99
2019-01-19T09:21:54.193Z,99.99
2019-01-19T09:22:54.214Z,98.96
2019-01-19T09:23:54.233Z,97.82
2019-01-19T09:24:54.255Z,96.07
2019-01-19T09:25:54.276Z,94.56
2019-01-19T09:26:54.299Z,92.76
2019-01-19T09:27:54.320Z,92.76
2019-01-19T09:28:54.342Z,92.66
2019-01-19T09:29:54.365Z,93.27
2019-01-19T09:30:54.385Z,93.46
2019-01-19T09:31:54.407Z,93.84
2019-01-19T09:32:54.428Z,94.51
2019-01-19T09:33:54.456Z,94.51
2019-01-19T09:34:55.689Z,94.04
2019-01-19T09:35:54.500Z,93.32
2019-01-19T09:36:54.523Z,92.14
2019-01-19T09:37:54.544Z,90.53
2019-01-19T09:38:54.570Z,89.20
2019-01-19T09:39:54.591Z,88.16
2019-01-19T09:40:54.616Z,87.30
2019-01-19T09:41:54.638Z,87.68
2019-01-19T09:42:54.663Z,87.73
2019-01-19T09:43:54.693Z,86.59
2019-01-19T09:44:54.711Z,84.74
2019-01-19T09:45:54.737Z,83.31
2019-01-19T09:46:54.761Z,82.21
2019-01-19T09:47:54.785Z,80.69
2019-01-19T09:48:54.812Z,78.93
2019-01-19T09:49:54.836Z,77.51
2019-01-19T09:50:54.863Z,76.93
2019-01-19T09:51:54.885Z,76.65
2019-01-19T09:52:54.913Z,76.56
2019-01-19T09:53:54.937Z,77.03
2019-01-19T09:54:54.967Z,76.21
2019-01-19T09:55:54.993Z,75.26
2019-01-19T09:56:55.017Z,75.13
2019-01-19T09:57:55.045Z,74.27
2019-01-19T09:58:55.073Z,78.64
2019-01-19T09:59:55.101Z,78.36
2019-01-19T10:00:55.131Z,77.41
2019-01-19T10:01:55.159Z,76.37
2019-01-19T10:02:55.185Z,76.27
2019-01-19T10:03:55.214Z,75.70
2019-01-19T10:04:55.238Z,75.85
2019-01-19T10:05:55.266Z,76.71
2019-01-19T10:06:55.296Z,76.71
2019-01-19T10:07:55.325Z,76.65
2019-01-19T10:08:55.351Z,76.32
2019-01-19T10:09:55.380Z,77.09
2019-01-19T10:10:55.411Z,77.47
2019-01-19T10:11:55.438Z,77.62
2019-01-19T10:12:55.465Z,78.00
2019-01-19T10:13:55.496Z,78.56
2019-01-19T10:14:55.525Z,79.66
2019-01-19T10:15:55.553Z,81.71
2019-01-19T10:16:55.579Z,83.37
2019-01-19T10:17:55.610Z,86.36
2019-01-19T10:18:55.639Z,89.01
2019-01-19T10:19:55.666Z,90.77
2019-01-19T10:20:55.695Z,91.81
2019-01-19T10:21:55.720Z,92.38
2019-01-19T10:22:55.751Z,93.32
2019-01-19T10:23:55.776Z,93.42
2019-01-19T10:24:55.802Z,94.56
2019-01-19T10:25:55.835Z,94.56
2019-01-19T10:26:55.858Z,94.56
2019-01-19T10:27:55.882Z,95.21
2019-01-19T10:28:55.911Z,95.03
2019-01-19T10:29:55.936Z,94.18
2019-01-19T10:30:55.963Z,94.08
2019-01-19T10:31:55.990Z,93.61
2019-01-19T10:32:56.016Z,94.18
2019-01-19T10:33:56.042Z,94.56
2019-01-19T10:34:56.066Z,94.27
2019-01-19T10:35:56.090Z,94.65
2019-01-19T10:36:56.115Z,94.37
2019-01-19T10:37:56.950Z,94.93
2019-01-19T10:38:56.169Z,94.46
2019-01-19T10:39:56.190Z,93.61
2019-01-19T10:40:56.217Z,94.08
2019-01-19T10:41:56.239Z,93.89
2019-01-19T10:42:56.264Z,93.89
2019-01-19T10:43:56.287Z,93.80
2019-01-19T10:44:56.311Z,94.65
2019-01-19T10:45:56.335Z,94.74
2019-01-19T10:46:56.362Z,95.12
2019-01-19T10:47:56.385Z,93.70
2019-01-19T10:48:56.411Z,92.57
2019-01-19T10:49:56.432Z,92.76
2019-01-19T10:50:56.456Z,92.10
2019-01-19T10:51:59.529Z,92.76
2019-01-19T10:52:56.503Z,92.66
2019-01-19T10:53:56.527Z,92.47
2019-01-19T10:54:56.552Z,91.81
2019-01-19T10:55:56.569Z,91.91
2019-01-19T10:56:56.595Z,92.29
2019-01-19T10:57:56.617Z,92.47
2019-01-19T10:58:56.638Z,91.95
2019-01-19T10:59:56.662Z,91.57
2019-01-19T11:00:56.683Z,91.38
2019-01-19T11:01:56.706Z,90.81
2019-01-19T11:02:56.732Z,90.91
2019-01-19T11:03:56.753Z,90.63
2019-01-19T11:04:56.776Z,90.81
2019-01-19T11:05:56.797Z,89.68
2019-01-19T11:06:56.828Z,89.01
2019-01-19T11:08:03.149Z,88.82
2019-01-19T11:08:56.864Z,88.73
2019-01-19T11:09:56.889Z,88.54
2019-01-19T11:10:56.916Z,88.64
2019-01-19T11:11:56.932Z,88.35
2019-01-19T11:12:56.957Z,87.88
2019-01-19T11:13:56.980Z,87.69
2019-01-19T11:14:57.002Z,87.69
2019-01-19T11:15:57.022Z,87.78
2019-01-19T11:16:57.046Z,87.88
2019-01-19T11:17:57.070Z,87.78
2019-01-19T11:18:57.096Z,87.78
2019-01-19T11:19:57.113Z,87.12
2019-01-19T11:20:57.138Z,86.93
2019-01-19T11:21:57.159Z,87.31
2019-01-19T11:22:57.185Z,86.98
2019-01-19T11:23:57.204Z,87.16
2019-01-19T11:24:57.233Z,87.16
2019-01-19T11:25:57.251Z,86.98
2019-01-19T11:26:57.273Z,86.79
2019-01-19T11:27:57.295Z,86.22
2019-01-19T11:28:57.318Z,86.03
2019-01-19T11:29:57.342Z,85.93
2019-01-19T11:30:57.366Z,85.27
2019-01-19T11:31:57.385Z,84.42
2019-01-19T11:32:57.408Z,84.32
2019-01-19T11:33:57.432Z,83.47
2019-01-19T11:34:57.454Z,83.56
2019-01-19T11:35:57.480Z,83.18
2019-01-19T11:36:57.500Z,82.90
2019-01-19T11:37:57.523Z,82.66
2019-01-19T11:38:57.547Z,82.37
2019-01-19T11:39:57.571Z,82.28
2019-01-19T11:40:57.595Z,81.62
2019-01-19T11:41:57.618Z,80.86
2019-01-19T11:42:57.641Z,79.91
2019-01-19T11:43:57.662Z,79.72
2019-01-19T11:44:57.688Z,79.72
2019-01-19T11:45:57.709Z,78.20
2019-01-19T11:46:57.735Z,78.53
2019-01-19T11:47:57.757Z,78.53
2019-01-19T11:48:57.784Z,78.43
2019-01-19T11:49:57.806Z,77.77
2019-01-19T11:50:57.829Z,77.39
2019-01-19T11:51:57.854Z,76.63
2019-01-19T11:52:57.877Z,76.34
2019-01-19T11:53:57.900Z,76.15
2019-01-19T11:54:57.927Z,75.43
2019-01-19T11:55:57.954Z,75.62
2019-01-19T11:56:57.975Z,75.62
2019-01-19T11:57:57.999Z,75.31
2019-01-19T11:58:58.025Z,75.78
2019-01-19T11:59:58.050Z,76.54
2019-01-19T12:00:58.076Z,76.54
2019-01-19T12:01:58.101Z,77.25
2019-01-19T12:02:58.124Z,77.83
2019-01-19T12:03:58.148Z,78.05
2019-01-19T12:04:58.179Z,76.82
2019-01-19T12:05:58.201Z,76.10
2019-01-19T12:06:58.231Z,75.19
2019-01-19T12:07:58.248Z,73.96
2019-01-19T12:08:58.299Z,72.56
2019-01-19T12:09:58.299Z,71.23
2019-01-19T12:10:58.327Z,71.39
2019-01-19T12:11:58.349Z,71.73
2019-01-19T12:12:58.375Z,71.83
2019-01-19T12:13:58.400Z,72.40
2019-01-19T12:14:58.431Z,72.68
2019-01-19T12:15:58.462Z,72.78
2019-01-19T12:16:58.477Z,72.68
2019-01-19T12:17:58.503Z,72.59
2019-01-19T12:18:58.532Z,72.30
2019-01-19T12:19:58.557Z,71.92
2019-01-19T12:20:58.580Z,72.02
2019-01-19T12:21:58.606Z,72.68
2019-01-19T12:22:58.633Z,73.35
2019-01-19T12:23:58.658Z,73.38
2019-01-19T12:24:58.689Z,72.72
2019-01-19T12:25:58.715Z,72.72
2019-01-19T12:26:58.738Z,72.63
2019-01-19T12:27:58.767Z,72.72
2019-01-19T12:28:58.791Z,72.44
2019-01-19T12:29:58.818Z,71.67
2019-01-19T12:30:58.845Z,71.14
2019-01-19T12:31:58.878Z,70.86
2019-01-19T12:32:58.900Z,70.38
2019-01-19T12:33:58.926Z,70.44
2019-01-19T12:34:58.953Z,70.86
2019-01-19T12:35:58.979Z,70.92
2019-01-19T12:36:59.006Z,71.23
2019-01-19T12:37:59.032Z,70.35
2019-01-19T12:38:59.058Z,70.63
2019-01-19T12:39:59.083Z,69.87
2019-01-19T12:40:59.120Z,69.49
2019-01-19T12:41:59.137Z,69.96
2019-01-19T12:42:59.168Z,69.78
2019-01-19T12:43:59.192Z,69.40
2019-01-19T12:44:59.216Z,69.30
2019-01-19T12:45:59.246Z,69.30
2019-01-19T12:46:59.271Z,68.19
2019-01-19T12:47:59.295Z,67.15
2019-01-19T12:48:59.325Z,66.67
2019-01-19T12:49:59.351Z,66.64
2019-01-19T12:50:59.379Z,67.40
2019-01-19T12:51:59.404Z,67.88
2019-01-19T12:52:59.430Z,68.92
2019-01-19T12:53:59.457Z,69.59
2019-01-19T12:54:59.481Z,70.06